Westerlo, New York
Current Conditions -  °F | °C
As of 8:51 PM on Monday 22 Dec 2014 (Local Time) from KALB Reporting Station
Overcast Overcast  
Wind Chill: 34°   Ceiling: 2100
Heat Index: 34°   Visibility: 10mi
Dew Point: 27°   Wind: 0mph
Humidity: 75%   Direction: NA
Pressure: 30.25"   Gusts: NA
Location:  42.52°N, 74.04°W
Report Text: KALB 230151Z 00000KT 10SM BKN021 OVC040 01/M03 A3025 RMK AO2 SLP248 T00111028
Loading
Personal Weather Stations






























Interactive Weather Map New forecast layout! Learn more

10-Day Weather Forecast

Advertisements
Track Severe Weather on mobile